KCKN

Crookston Municipal Kirkwood Field Airport

Crookston, Minnesota, USA
METAR KCKN 250115Z AUTO 22014KT 10SM CLR 30/11 A2968 RMK AO2 LTG DSNT SE AND NW
Observed Flight Rules
May-25 @ 01:15 UTC (7 minutes ago) Visual Flight Rules
Wind Visibility Clouds
220° at 14 knots 10 miles
  • Clear skies
Temperatures Readings
Current 30°C / 86°F
Dewpoint 11°C / 52°F
Humidity 31%
Altimeter 29.68" Hg
Pressure 1005 hPa
Elevation 273
METAR KCKN 250115Z AUTO 22014KT 10SM CLR 30/11 A2968 RMK AO2 LTG DSNT SE AND NW
Observed Flight Rules
May-25 @ 01:15 UTC
(7 minutes ago)
VFR
Wind Visibility
220° at 14 knots 10 miles
Clouds
  • Clear skies
Temperature Dewpoint
30°C / 86°F 11°C / 52°F
Humidity Altimeter Pressure
31% 29.68" Hg 1005 hPa